Terminal Aerodrome Forecast
Issued by NWS

Current Version | Previous Version | Text Only | Print | Product List | Glossary On
Versions: 1 2 3 4 5 6 7 8 9 10 11 12 13 14 15 16 17 18 19 20 21 22 23
000
FTUS43 KABR 251700
TAFATY
TAF
KATY 251728Z 2518/2618 33006KT P6SM SKC
     FM252300 VRB06KT P6SM SKC
     FM260900 14008KT P6SM SKC WS013/17035KT
     FM261400 16015G21KT P6SM SCT250=

USA.gov is the U.S. government's official web portal to all federal, state and local government web resources and services.